Time;durP1;ratioP1;P1;durP2;ratioP2;P2;SDS_P1;SDS_P2;PMS_P1;PMS_P2;Temp;Humidity;BMP_temperature;BMP_pressure;BME280_temperature;BME280_humidity;BME280_pressure;Samples;Min_cycle;Max_cycle;Signal;HPM_P1;HPM_P2
2022/09/23 03:02:44;;;;;;;9.35;6.00;;;;;;;9.14;54.85;101458.75;5714446;23;20078;-68
2022/09/23 03:05:30;;;;;;;15.27;6.50;;;;;;;9.17;54.99;101449.63;4969619;28;20046;-68
2022/09/23 03:08:18;;;;;;;16.17;6.50;;;;;;;9.19;54.74;101458.34;4968911;28;20054;-67
2022/09/23 03:10:51;;;;;;;12.75;6.28;;;;;;;9.16;54.59;101456.81;4967266;28;20047;-68
2022/09/23 03:13:28;;;;;;;16.20;6.55;;;;;;;9.09;54.82;101455.63;4951757;28;20090;-67
2022/09/23 03:16:04;;;;;;;13.52;6.45;;;;;;;9.14;54.61;101452.56;4953491;29;20074;-67
2022/09/23 03:18:49;;;;;;;12.35;6.75;;;;;;;9.04;55.00;101448.00;4952725;28;20086;-68
2022/09/23 03:21:25;;;;;;;14.45;6.50;;;;;;;8.99;55.16;101441.31;4971273;28;20054;-68
2022/09/23 03:23:53;;;;;;;11.77;6.65;;;;;;;9.06;54.99;101442.53;4972740;28;20054;-67
2022/09/23 03:26:24;;;;;;;10.65;6.60;;;;;;;8.98;55.35;101448.50;4972943;28;20419;-68
2022/09/23 03:28:52;;;;;;;10.45;6.18;;;;;;;9.00;55.14;101443.88;4975906;28;20475;-67
2022/09/23 03:31:18;;;;;;;13.65;5.88;;;;;;;8.96;54.91;101444.28;4975782;28;20058;-68
2022/09/23 03:33:49;;;;;;;12.55;6.13;;;;;;;9.00;54.87;101446.56;4975330;28;20134;-68
2022/09/23 03:39:14;;;;;;;10.38;6.15;;;;;;;8.93;54.92;101439.19;4973466;28;20058;-68
2022/09/23 03:41:48;;;;;;;12.63;5.50;;;;;;;8.84;55.24;101438.16;4973647;28;20498;-68
2022/09/23 03:44:16;;;;;;;11.73;5.63;;;;;;;8.80;55.34;101434.88;4972271;28;20050;-68
2022/09/23 03:46:48;;;;;;;12.10;5.35;;;;;;;8.82;55.00;101432.94;4974084;28;20414;-68
2022/09/23 03:49:28;;;;;;;10.35;5.35;;;;;;;8.75;55.11;101433.59;4973582;28;20558;-68
2022/09/23 03:51:55;;;;;;;12.45;4.95;;;;;;;8.80;55.18;101436.72;4967846;28;20123;-68
2022/09/23 03:54:21;;;;;;;9.85;4.78;;;;;;;8.82;54.80;101432.09;4974247;28;20054;-68
2022/09/23 03:56:48;;;;;;;7.97;4.90;;;;;;;8.82;54.70;101424.91;4957443;28;20051;-68
2022/09/23 03:59:15;;;;;;;10.63;4.80;;;;;;;8.85;54.53;101426.50;4972571;28;20166;-67
2022/09/23 04:01:42;;;;;;;12.63;5.45;;;;;;;8.87;54.71;101424.50;4974757;28;20500;-68
2022/09/23 04:04:09;;;;;;;11.95;5.03;;;;;;;8.85;54.66;101431.84;4993708;28;20050;-68
2022/09/23 04:06:36;;;;;;;10.70;5.60;;;;;;;8.79;55.08;101421.66;4992810;28;20104;-68
2022/09/23 04:09:02;;;;;;;13.43;5.18;;;;;;;8.77;54.88;101420.94;4993231;28;20157;-68
2022/09/23 04:11:29;;;;;;;17.75;5.38;;;;;;;8.70;55.09;101414.41;4982126;28;20478;-68
2022/09/23 04:13:55;;;;;;;10.05;5.28;;;;;;;8.71;54.99;101416.97;4973213;28;20062;-68
2022/09/23 04:16:22;;;;;;;12.38;5.72;;;;;;;8.69;54.86;101413.56;4973203;28;20542;-68
2022/09/23 04:18:49;;;;;;;12.43;5.47;;;;;;;8.66;55.27;101419.19;4972715;28;20090;-68
2022/09/23 04:21:16;;;;;;;7.00;5.18;;;;;;;8.72;54.94;101415.13;4973862;28;20073;-67
2022/09/23 04:23:42;;;;;;;8.32;5.20;;;;;;;8.69;54.70;101404.69;4973039;28;20047;-68
2022/09/23 04:26:09;;;;;;;8.63;5.18;;;;;;;8.72;54.89;101409.78;4973514;28;20062;-68
2022/09/23 04:28:36;;;;;;;9.73;5.70;;;;;;;8.76;54.67;101411.22;4973176;28;20098;-67
2022/09/23 04:31:07;;;;;;;8.98;5.22;;;;;;;8.75;54.71;101405.03;4973709;28;20410;-68
2022/09/23 04:33:33;;;;;;;10.98;5.93;;;;;;;8.76;54.80;101411.22;4972051;28;20185;-68
2022/09/23 04:36:00;;;;;;;8.27;5.60;;;;;;;8.70;54.98;101404.56;4971851;28;20046;-68
2022/09/23 04:38:26;;;;;;;10.25;5.60;;;;;;;8.73;54.73;101411.47;4973489;28;20055;-68
2022/09/23 04:40:53;;;;;;;10.48;5.13;;;;;;;8.49;55.60;101406.38;4973320;28;20378;-67
2022/09/23 04:43:22;;;;;;;8.25;5.38;;;;;;;8.49;55.55;101409.91;4973263;28;20481;-67
2022/09/23 04:46:03;;;;;;;13.18;5.78;;;;;;;8.45;55.91;101402.28;4971272;28;20054;-68
2022/09/23 04:48:30;;;;;;;12.88;6.18;;;;;;;8.46;55.49;101402.13;4972698;28;20051;-67
2022/09/23 04:51:09;;;;;;;11.45;6.30;;;;;;;8.46;55.73;101401.28;4973457;28;20046;-69
2022/09/23 04:53:37;;;;;;;17.45;6.85;;;;;;;8.54;55.59;101397.00;4972963;28;20571;-69
2022/09/23 04:56:08;;;;;;;15.48;6.10;;;;;;;8.56;55.75;101405.72;4972917;28;20046;-69
2022/09/23 04:58:35;;;;;;;15.05;7.20;;;;;;;8.54;55.75;101399.69;4972192;28;20042;-69
2022/09/23 05:01:07;;;;;;;12.40;6.50;;;;;;;8.55;55.54;101398.69;4973208;28;20061;-69
2022/09/23 05:03:34;;;;;;;17.00;6.63;;;;;;;8.57;56.30;101406.56;4973501;28;20047;-69
2022/09/23 05:06:01;;;;;;;17.48;6.68;;;;;;;8.56;56.77;101400.38;4973587;28;20053;-69
2022/09/23 05:08:28;;;;;;;19.45;6.13;;;;;;;8.61;56.93;101395.50;4973265;28;20061;-69
2022/09/23 05:10:59;;;;;;;20.10;7.03;;;;;;;8.69;56.86;101399.34;4973837;28;20082;-69
2022/09/23 05:13:26;;;;;;;32.27;7.87;;;;;;;8.73;56.47;101398.09;4972259;28;20051;-72
2022/09/23 05:16:05;;;;;;;19.27;6.82;;;;;;;8.69;56.13;101394.84;4973093;28;20294;-69
2022/09/23 05:18:32;;;;;;;16.55;6.97;;;;;;;8.68;56.08;101400.31;4972241;28;20175;-69
2022/09/23 05:20:59;;;;;;;16.58;9.30;;;;;;;8.65;56.13;101403.28;4971082;28;20430;-69
2022/09/23 05:23:26;;;;;;;21.27;12.75;;;;;;;8.67;55.78;101401.28;4971646;28;20051;-69
2022/09/23 05:25:57;;;;;;;21.73;9.85;;;;;;;8.70;55.60;101406.38;4971008;28;20047;-69
2022/09/23 05:28:30;;;;;;;13.52;7.63;;;;;;;8.70;55.53;101399.19;4973610;28;20054;-69
2022/09/23 05:31:05;;;;;;;13.35;6.28;;;;;;;8.61;55.66;101403.53;4972051;28;20407;-69
2022/09/23 05:33:33;;;;;;;9.32;5.90;;;;;;;8.64;55.70;101398.88;4973134;28;20132;-69
2022/09/23 05:36:00;;;;;;;13.60;6.47;;;;;;;8.70;55.84;101401.88;4973320;28;20049;-69
2022/09/23 05:38:28;;;;;;;15.57;6.78;;;;;;;8.66;55.98;101400.44;4962797;28;20068;-68
2022/09/23 05:40:56;;;;;;;26.30;9.18;;;;;;;8.50;56.23;101398.22;4972501;28;20057;-68
2022/09/23 05:43:23;;;;;;;25.92;7.68;;;;;;;8.63;56.02;101398.03;4972584;28;20047;-69
2022/09/23 05:45:50;;;;;;;15.45;6.75;;;;;;;8.51;56.19;101397.25;4972668;28;20050;-69
2022/09/23 05:48:17;;;;;;;11.15;6.55;;;;;;;8.51;56.35;101404.44;4972928;28;20055;-69
2022/09/23 05:50:50;;;;;;;13.75;6.63;;;;;;;8.42;56.52;101398.03;4973483;28;20047;-69
2022/09/23 05:53:17;;;;;;;17.73;6.47;;;;;;;8.44;56.74;101404.13;4963983;28;20410;-69
2022/09/23 05:55:44;;;;;;;17.77;6.72;;;;;;;8.55;56.25;101401.38;4960957;28;20434;-68
2022/09/23 05:58:12;;;;;;;15.20;7.40;;;;;;;8.56;56.28;101400.38;4973643;28;20058;-67
2022/09/23 06:00:40;;;;;;;18.30;7.60;;;;;;;8.64;56.29;101398.88;4971535;28;20049;-67
2022/09/23 06:03:17;;;;;;;19.35;7.05;;;;;;;8.70;55.95;101401.03;4971460;28;20521;-74
2022/09/23 06:05:45;;;;;;;15.45;7.35;;;;;;;8.64;56.31;101397.03;4972947;28;20379;-74
2022/09/23 06:08:12;;;;;;;13.68;7.07;;;;;;;8.76;56.23;101400.50;4972688;28;20057;-74
2022/09/23 06:10:43;;;;;;;15.63;7.25;;;;;;;8.82;55.78;101400.00;4971677;28;20046;-74
2022/09/23 06:13:10;;;;;;;22.17;7.20;;;;;;;8.83;55.87;101396.34;4971795;28;20051;-73
2022/09/23 06:15:37;;;;;;;19.35;7.10;;;;;;;8.88;55.71;101398.59;4972534;28;20043;-74
2022/09/23 06:18:05;;;;;;;20.27;6.65;;;;;;;8.90;55.65;101392.16;4955565;28;20130;-74
2022/09/23 06:20:33;;;;;;;15.25;7.25;;;;;;;9.07;55.30;101401.38;4970896;28;20412;-74
2022/09/23 06:23:04;;;;;;;16.52;8.63;;;;;;;9.18;55.15;101400.44;4973084;28;20058;-74
2022/09/23 06:25:39;;;;;;;15.75;7.07;;;;;;;9.32;54.45;101398.28;4973444;28;20055;-74
2022/09/23 06:28:10;;;;;;;14.50;6.60;;;;;;;9.47;53.97;101401.44;4973283;28;20057;-74
2022/09/23 06:30:38;;;;;;;19.47;6.50;;;;;;;9.57;54.02;101396.09;4971690;28;20422;-74
2022/09/23 06:33:04;;;;;;;18.35;6.45;;;;;;;9.87;53.44;101394.31;4962808;28;20521;-74
2022/09/23 06:35:32;;;;;;;15.10;6.32;;;;;;;10.28;52.23;101393.22;4972159;28;20403;-73
2022/09/23 06:38:02;;;;;;;13.23;6.20;;;;;;;10.80;51.36;101400.94;4971570;28;20051;-74
2022/09/23 06:40:28;;;;;;;10.65;5.63;;;;;;;11.07;49.91;101401.00;4972175;28;20130;-75
2022/09/23 06:42:57;;;;;;;19.13;6.88;;;;;;;11.52;49.41;101405.59;4972911;28;20047;-73
2022/09/23 06:45:24;;;;;;;16.98;6.10;;;;;;;11.76;48.39;101397.00;4972639;28;20050;-74
2022/09/23 06:47:55;;;;;;;15.50;6.30;;;;;;;12.19;47.46;101395.41;4972521;28;20042;-73
2022/09/23 06:50:23;;;;;;;12.20;4.25;;;;;;;12.26;47.13;101403.69;4972273;28;20142;-73
2022/09/23 06:52:58;;;;;;;19.83;6.57;;;;;;;12.65;46.42;101405.00;4973523;28;20053;-74
2022/09/23 06:55:26;;;;;;;11.80;5.40;;;;;;;13.15;45.66;101403.53;4973017;28;20051;-74
2022/09/23 06:57:59;;;;;;;12.18;5.68;;;;;;;13.65;44.23;101410.78;4971951;28;20047;-74
2022/09/23 07:00:25;;;;;;;14.32;6.25;;;;;;;13.96;43.51;101407.53;4972031;28;20054;-74
2022/09/23 07:02:53;;;;;;;16.10;5.97;;;;;;;14.23;42.82;101404.53;4972008;28;20051;-73
2022/09/23 07:05:21;;;;;;;9.52;6.43;;;;;;;14.31;42.42;101401.00;4972710;28;20066;-73
2022/09/23 07:07:47;;;;;;;14.95;6.18;;;;;;;14.97;41.14;101404.50;4954761;28;20482;-72
2022/09/23 07:10:14;;;;;;;12.57;5.15;;;;;;;14.77;40.76;101417.53;4973907;28;20042;-73
2022/09/23 07:12:41;;;;;;;18.45;6.30;;;;;;;15.20;40.39;101405.47;4990589;28;20064;-74
2022/09/23 07:15:08;;;;;;;10.98;6.25;;;;;;;14.69;41.03;101412.13;4991628;28;20053;-75
2022/09/23 07:17:35;;;;;;;11.63;6.30;;;;;;;15.12;40.64;101416.31;4991499;28;20496;-73
2022/09/23 07:20:02;;;;;;;15.40;6.32;;;;;;;15.74;39.06;101415.53;4990632;28;20050;-73
2022/09/23 07:22:28;;;;;;;11.32;6.05;;;;;;;15.61;39.07;101416.09;4990206;28;20050;-74
2022/09/23 07:24:55;;;;;;;19.75;6.32;;;;;;;15.73;39.60;101410.31;4989995;28;20053;-74
2022/09/23 07:27:26;;;;;;;10.90;5.65;;;;;;;15.12;40.73;101408.19;4990238;28;20042;-72
2022/09/23 07:29:53;;;;;;;8.20;5.05;;;;;;;15.73;39.15;101413.03;4991524;28;20054;-73
2022/09/23 07:32:21;;;;;;;9.63;5.38;;;;;;;16.33;37.92;101417.69;4987657;28;20046;-74
2022/09/23 07:34:48;;;;;;;9.38;5.38;;;;;;;16.58;37.14;101415.69;4972295;28;20479;-74
2022/09/23 07:37:16;;;;;;;14.07;5.85;;;;;;;16.43;38.51;101410.16;4972994;28;20083;-74
2022/09/23 07:39:44;;;;;;;12.63;5.18;;;;;;;15.38;39.81;101405.22;4972566;28;20043;-63
2022/09/23 07:42:12;;;;;;;7.47;4.57;;;;;;;15.72;39.08;101412.19;4972229;28;20051;-62
2022/09/23 07:44:42;;;;;;;6.55;4.70;;;;;;;16.11;38.33;101403.16;4972164;28;20054;-62
2022/09/23 07:47:09;;;;;;;16.53;5.50;;;;;;;15.86;39.56;101399.78;4971381;28;20379;-64
2022/09/23 07:49:36;;;;;;;11.55;5.00;;;;;;;16.26;38.41;101409.44;4972771;28;20063;-63
2022/09/23 07:52:03;;;;;;;10.43;4.10;;;;;;;16.04;38.74;101405.72;4972452;28;20050;-64
2022/09/23 07:54:30;;;;;;;7.60;4.43;;;;;;;15.61;39.14;101407.16;4970919;28;20047;-64
2022/09/23 07:56:58;;;;;;;11.82;4.57;;;;;;;16.23;37.91;101412.56;4971559;28;20053;-64
2022/09/23 07:59:26;;;;;;;6.88;4.28;;;;;;;14.80;39.98;101403.69;4971494;28;20073;-64
2022/09/23 08:01:54;;;;;;;5.78;3.97;;;;;;;14.92;40.41;101402.31;4971112;28;20049;-64
2022/09/23 08:04:29;;;;;;;4.15;3.75;;;;;;;15.83;38.94;101403.66;4970877;28;20501;-64
2022/09/23 08:06:59;;;;;;;9.48;5.03;;;;;;;16.70;37.47;101407.94;4972303;28;20046;-63
2022/09/23 08:09:30;;;;;;;8.10;3.85;;;;;;;17.11;36.60;101403.78;4974005;28;20050;-62
2022/09/23 08:11:57;;;;;;;6.57;3.40;;;;;;;17.20;36.47;101406.38;4990334;28;20450;-64
2022/09/23 08:14:24;;;;;;;12.32;4.13;;;;;;;16.77;36.70;101401.59;4995024;28;20058;-64
2022/09/23 08:16:51;;;;;;;6.57;4.22;;;;;;;17.85;35.74;101397.41;4994502;28;20043;-62
2022/09/23 08:19:17;;;;;;;10.82;5.40;;;;;;;17.85;35.69;101398.25;4988645;28;20050;-63
2022/09/23 08:21:48;;;;;;;8.32;4.35;;;;;;;17.78;35.24;101404.66;4995034;28;20050;-64
2022/09/23 08:24:18;;;;;;;6.43;4.07;;;;;;;17.57;35.67;101403.56;4994085;28;20046;-64
2022/09/23 08:26:46;;;;;;;5.47;4.00;;;;;;;17.45;35.80;101402.38;4994330;28;20286;-64
2022/09/23 08:29:15;;;;;;;5.40;3.55;;;;;;;17.51;36.14;101393.50;4994843;28;20426;-64
2022/09/23 08:31:42;;;;;;;6.53;3.67;;;;;;;18.28;34.68;101389.34;4993582;28;20052;-63
2022/09/23 08:34:09;;;;;;;6.43;3.78;;;;;;;18.41;34.28;101394.03;4994077;28;20465;-62
2022/09/23 08:36:36;;;;;;;6.93;3.45;;;;;;;17.75;36.05;101386.03;4994247;28;20134;-62
2022/09/23 08:39:04;;;;;;;3.78;3.10;;;;;;;18.45;34.32;101382.59;4994861;28;20046;-62
2022/09/23 08:41:53;;;;;;;4.13;3.10;;;;;;;17.84;35.64;101387.59;4993927;28;20049;-62
2022/09/23 08:44:44;;;;;;;5.22;3.67;;;;;;;17.83;35.33;101380.50;4993824;28;20057;-61
2022/09/23 08:47:17;;;;;;;6.28;3.30;;;;;;;17.85;35.60;101381.13;4994550;28;20051;-67
2022/09/23 08:50:06;;;;;;;5.38;3.20;;;;;;;17.90;35.68;101381.41;4993777;28;20052;-76
2022/09/23 08:52:58;;;;;;;4.35;2.83;;;;;;;18.22;34.96;101371.09;4992936;28;20395;-79
2022/09/23 08:55:40;;;;;;;3.92;2.83;;;;;;;17.66;36.03;101379.06;4994035;28;20038;-79
2022/09/23 08:58:28;;;;;;;8.15;3.33;;;;;;;18.66;34.87;101364.56;4994582;28;20054;-78
2022/09/23 09:01:32;;;;;;;5.93;2.85;;;;;;;18.74;34.27;101365.25;4994999;28;20042;-79
2022/09/23 09:04:12;;;;;;;9.48;3.38;;;;;;;18.58;35.31;101362.81;4994276;28;20042;-79
2022/09/23 09:06:58;;;;;;;6.78;3.40;;;;;;;19.29;33.48;101365.38;4993705;28;20054;-79
2022/09/23 09:09:52;;;;;;;5.07;2.83;;;;;;;19.06;33.58;101362.94;4993936;28;20370;-78
2022/09/23 09:12:28;;;;;;;6.55;2.03;;;;;;;18.16;34.77;101369.16;4975573;28;20045;-76
2022/09/23 09:15:28;;;;;;;6.93;3.38;;;;;;;17.10;36.94;101366.03;4972619;28;20053;-79
2022/09/23 09:18:06;;;;;;;7.30;2.78;;;;;;;17.80;35.49;101359.16;4973741;28;20078;-79
2022/09/23 09:20:44;;;;;;;6.40;2.53;;;;;;;19.01;33.45;101363.56;4972395;28;20042;-78
2022/09/23 09:23:18;;;;;;;5.00;2.55;;;;;;;20.42;31.25;101358.34;4973002;28;20050;-67
2022/09/23 09:25:48;;;;;;;6.70;2.97;;;;;;;20.07;31.96;101365.81;4973360;28;20466;-67
2022/09/23 09:28:29;;;;;;;6.30;2.83;;;;;;;21.36;30.52;101362.56;4973147;28;20047;-67
2022/09/23 09:31:00;;;;;;;8.32;2.75;;;;;;;20.65;31.03;101357.06;4972743;28;20054;-67
2022/09/23 09:33:35;;;;;;;6.70;2.53;;;;;;;20.12;31.44;101359.78;4972372;28;20081;-67
2022/09/23 09:36:07;;;;;;;3.05;2.00;;;;;;;21.44;30.05;101352.47;4972556;28;20047;-66
2022/09/23 09:38:35;;;;;;;9.27;2.28;;;;;;;21.69;29.31;101355.25;4972236;28;20391;-67
2022/09/23 09:41:14;;;;;;;4.30;2.08;;;;;;;21.55;28.66;101355.31;4972457;28;20054;-66
2022/09/23 09:43:47;;;;;;;5.10;2.47;;;;;;;21.79;29.06;101334.63;4972179;28;20054;-67
2022/09/23 09:46:43;;;;;;;4.80;2.00;;;;;;;20.41;29.83;101344.91;4972155;28;20043;-67
2022/09/23 09:49:21;;;;;;;5.25;1.90;;;;;;;18.69;32.49;101337.00;4971252;28;20046;-67
2022/09/23 09:52:14;;;;;;;4.30;1.75;;;;;;;19.02;31.34;101331.78;4972934;28;20049;-66
2022/09/23 09:54:42;;;;;;;4.80;2.00;;;;;;;20.77;29.80;101319.09;4962817;28;20039;-68
2022/09/23 09:57:17;;;;;;;3.47;1.60;;;;;;;21.66;28.76;101310.09;4971559;28;20062;-66
2022/09/23 09:59:44;;;;;;;4.72;2.00;;;;;;;22.34;27.41;101314.88;4972319;28;20125;-66
2022/09/23 10:02:20;;;;;;;6.05;2.10;;;;;;;22.04;27.68;101312.81;4972235;28;20101;-67
2022/09/23 10:04:58;;;;;;;3.13;1.65;;;;;;;22.64;27.49;101309.56;4972434;28;20070;-68
2022/09/23 10:07:30;;;;;;;2.40;1.80;;;;;;;22.03;27.90;101305.69;4972070;28;20415;-67
2022/09/23 10:09:57;;;;;;;4.68;2.30;;;;;;;21.87;28.04;101305.38;4968939;28;20046;-69
2022/09/23 10:12:46;;;;;;;2.63;1.33;;;;;;;21.43;26.40;101307.94;4953558;28;20444;-68
2022/09/23 10:15:26;;;;;;;3.38;1.27;;;;;;;21.92;25.63;101309.13;4953578;28;20047;-66
2022/09/23 10:17:53;;;;;;;2.33;1.73;;;;;;;21.92;25.29;101303.66;4953077;28;20050;-68
2022/09/23 10:20:19;;;;;;;2.58;1.17;;;;;;;22.17;23.81;101298.22;4954105;28;20047;-65
2022/09/23 10:22:46;;;;;;;1.80;1.27;;;;;;;21.18;24.95;101299.66;4942780;28;20043;-67
2022/09/23 10:25:20;;;;;;;2.75;1.50;;;;;;;20.84;25.52;101300.81;4952384;28;20051;-68
2022/09/23 10:27:46;;;;;;;2.90;1.25;;;;;;;20.68;26.18;101302.13;4952758;28;20070;-67
2022/09/23 10:30:22;;;;;;;2.45;1.40;;;;;;;20.42;26.48;101305.75;4952263;28;20051;-67
2022/09/23 10:32:50;;;;;;;4.72;1.30;;;;;;;20.46;26.46;101300.69;4950772;28;20050;-67
2022/09/23 10:35:23;;;;;;;2.03;1.58;;;;;;;20.06;28.02;101303.41;4952998;28;20047;-67
2022/09/23 10:38:09;;;;;;;3.88;1.67;;;;;;;21.38;27.10;101294.94;4952254;29;20070;-68
2022/09/23 10:46:46;;;;;;;3.35;1.35;;;;;;;20.47;27.47;101286.03;4952999;28;20058;-67
2022/09/23 10:49:41;;;;;;;2.40;1.33;;;;;;;20.49;27.63;101289.34;4951554;28;20058;-68
2022/09/23 10:52:34;;;;;;;7.65;1.60;;;;;;;19.82;28.28;101285.78;4952452;28;20490;-67
2022/09/23 10:55:12;;;;;;;3.13;1.77;;;;;;;20.96;27.75;101279.16;4952629;28;20046;-67
2022/09/23 10:58:01;;;;;;;4.03;1.45;;;;;;;20.26;28.35;101285.16;4948126;28;20051;-67
2022/09/23 11:00:56;;;;;;;2.72;1.30;;;;;;;20.04;28.58;101278.25;4951448;28;20043;-67
2022/09/23 11:03:45;;;;;;;4.20;1.48;;;;;;;19.85;27.96;101278.03;4951284;28;20063;-67
2022/09/23 11:06:32;;;;;;;2.63;1.20;;;;;;;18.04;30.20;101274.63;4951716;28;20047;-67
2022/09/23 11:09:15;;;;;;;3.28;1.67;;;;;;;19.27;28.36;101269.50;4952204;28;20043;-67
2022/09/23 11:11:51;;;;;;;2.42;1.35;;;;;;;20.23;27.36;101271.97;4963998;28;20049;-67
2022/09/23 11:14:33;;;;;;;1.83;1.10;;;;;;;19.85;28.00;101267.16;4971259;28;20053;-68
2022/09/23 11:17:17;;;;;;;3.22;1.00;;;;;;;19.47;28.48;101259.53;4969827;28;20047;-68
2022/09/23 11:20:24;;;;;;;2.45;1.45;;;;;;;19.82;27.69;101258.56;4970835;28;20086;-68
2022/09/23 11:23:13;;;;;;;1.58;1.40;;;;;;;19.08;27.96;101251.28;4970483;28;20043;-68
2022/09/23 11:25:43;;;;;;;3.67;1.38;;;;;;;18.56;28.35;101250.78;4970665;28;20053;-67
2022/09/23 11:28:19;;;;;;;5.88;1.30;;;;;;;19.41;27.72;101249.47;4971510;28;20051;-69
2022/09/23 11:31:03;;;;;;;1.30;1.00;;;;;;;20.97;25.31;101240.75;4971412;28;20043;-69
2022/09/23 11:33:54;;;;;;;3.00;1.40;;;;;;;20.55;25.04;101234.00;4969488;28;20125;-68
2022/09/23 11:36:31;;;;;;;3.40;1.42;;;;;;;20.51;25.90;101230.03;4971233;28;20070;-68
2022/09/23 11:39:04;;;;;;;8.68;1.45;;;;;;;20.78;24.94;101231.63;4971088;28;20084;-68
2022/09/23 11:41:38;;;;;;;5.10;1.38;;;;;;;21.67;25.08;101220.81;4960306;28;20436;-69
2022/09/23 11:44:25;;;;;;;1.83;1.27;;;;;;;22.02;24.31;101218.47;4972516;28;20422;-68
2022/09/23 11:47:20;;;;;;;5.65;1.25;;;;;;;21.33;24.42;101226.53;4973980;28;20051;-68
2022/09/23 11:49:58;;;;;;;1.77;1.15;;;;;;;21.73;24.50;101215.31;4963739;28;20053;-68
2022/09/23 11:52:40;;;;;;;1.83;1.20;;;;;;;22.99;24.04;101210.47;4973960;28;20071;-68
2022/09/23 11:55:26;;;;;;;5.95;1.23;;;;;;;23.27;22.29;101212.63;4974219;28;20058;-68
2022/09/23 11:57:55;;;;;;;1.90;1.20;;;;;;;22.80;22.35;101213.22;4974308;28;20050;-67
2022/09/23 12:00:25;;;;;;;3.67;1.27;;;;;;;23.57;21.78;101204.34;4974247;28;20054;-69
2022/09/23 12:03:16;;;;;;;1.65;1.30;;;;;;;23.61;22.12;101202.00;4973477;28;20043;-68
2022/09/23 12:06:11;;;;;;;2.78;1.35;;;;;;;25.55;20.01;101193.28;4973184;28;20471;-69
2022/09/23 12:08:38;;;;;;;2.67;1.20;;;;;;;25.75;19.40;101189.19;4964854;28;20047;-68
2022/09/23 12:11:07;;;;;;;4.82;1.30;;;;;;;25.08;19.56;101182.53;4973050;28;20057;-68
2022/09/23 12:13:47;;;;;;;5.28;1.38;;;;;;;21.79;23.25;101183.56;4973753;28;20050;-67
2022/09/23 12:16:41;;;;;;;4.57;1.10;;;;;;;22.26;23.70;101178.53;4973618;28;20051;-71
2022/09/23 12:19:34;;;;;;;4.32;1.70;;;;;;;22.37;23.09;101182.38;4973886;28;20101;-71
2022/09/23 12:22:26;;;;;;;3.63;1.20;;;;;;;22.14;23.21;101177.59;4972537;28;20043;-71
2022/09/23 12:25:05;;;;;;;3.88;1.05;;;;;;;22.03;23.13;101179.16;4973529;28;20394;-71
2022/09/23 12:27:36;;;;;;;4.93;1.30;;;;;;;22.17;23.62;101172.50;4973505;28;20057;-71
2022/09/23 12:30:11;;;;;;;3.08;1.60;;;;;;;21.81;24.18;101168.66;4973301;28;20049;-71
2022/09/23 12:32:41;;;;;;;3.97;1.30;;;;;;;20.97;24.90;101169.00;4973853;28;20047;-71
2022/09/23 12:35:34;;;;;;;2.45;1.35;;;;;;;21.99;23.73;101165.13;4973308;28;20491;-71
2022/09/23 12:38:01;;;;;;;3.20;1.10;;;;;;;24.41;20.87;101147.44;4929690;28;20049;-71
2022/09/23 12:40:32;;;;;;;3.53;1.50;;;;;;;24.35;20.63;101153.03;4975379;28;20047;-71
2022/09/23 12:43:01;;;;;;;7.30;1.90;;;;;;;23.62;21.68;101155.19;4958138;28;20042;-72
2022/09/23 12:45:31;;;;;;;7.93;2.58;;;;;;;24.52;20.49;101150.41;4975395;28;20043;-73
2022/09/23 12:48:18;;;;;;;4.72;1.20;;;;;;;23.17;21.73;101149.41;4964928;28;20515;-76
2022/09/23 12:51:15;;;;;;;3.63;1.50;;;;;;;22.58;22.43;101149.16;4963201;28;20051;-73
2022/09/23 12:53:53;;;;;;;4.15;1.33;;;;;;;23.94;21.19;101144.75;4974042;28;20051;-71
2022/09/23 12:56:25;;;;;;;2.65;1.13;;;;;;;23.30;22.21;101148.38;4973168;28;20058;-71
2022/09/23 12:59:13;;;;;;;1.52;1.20;;;;;;;22.29;23.06;101139.78;4973720;28;20051;-71
2022/09/23 13:01:40;;;;;;;3.40;1.50;;;;;;;22.92;23.05;101141.34;4973462;28;20035;-71
2022/09/23 13:07:22;;;;;;;3.85;1.30;;;;;;;22.02;24.06;101131.06;4973277;28;20051;-72
2022/09/23 13:09:51;;;;;;;2.83;1.20;;;;;;;21.50;23.67;101130.47;4973886;28;20050;-71
2022/09/23 13:12:24;;;;;;;3.42;1.20;;;;;;;20.28;24.55;101119.59;4991019;28;20050;-71
2022/09/23 13:14:54;;;;;;;2.10;1.33;;;;;;;18.47;26.34;101124.28;4993354;28;20046;-72
2022/09/23 13:17:28;;;;;;;8.43;1.30;;;;;;;18.94;26.75;101118.00;4993253;28;20407;-71
2022/09/23 13:20:00;;;;;;;3.97;1.33;;;;;;;18.41;27.48;101117.81;4992833;28;20053;-71
2022/09/23 13:23:04;;;;;;;3.78;1.17;;;;;;;18.90;27.10;101113.97;4991662;28;20042;-70
2022/09/23 13:25:37;;;;;;;1.90;1.20;;;;;;;19.24;26.79;101107.59;4952316;28;20046;-72
2022/09/23 13:28:19;;;;;;;5.38;1.30;;;;;;;19.64;26.59;101109.44;4993319;28;20413;-70
2022/09/23 13:30:50;;;;;;;3.58;1.40;;;;;;;19.21;26.93;101107.16;4991867;28;20070;-70
2022/09/23 13:33:36;;;;;;;;;;;;;;;19.10;26.80;101105.88;4993522;28;20046;-70
2022/09/23 13:36:11;;;;;;;3.05;1.00;;;;;;;18.37;27.66;101099.38;4972459;28;19921;-69
2022/09/23 13:38:37;;;;;;;2.42;1.15;;;;;;;17.79;28.25;101092.38;4991952;28;20046;-70
2022/09/23 13:41:11;;;;;;;5.43;1.60;;;;;;;17.89;28.31;101091.16;4991743;28;20042;-69
2022/09/23 13:44:02;;;;;;;2.20;1.10;;;;;;;17.96;28.00;101092.91;4992673;28;20056;-70
2022/09/23 13:46:42;;;;;;;4.47;1.30;;;;;;;17.87;28.83;101083.22;4992805;28;20058;-70
2022/09/23 13:49:23;;;;;;;1.88;1.13;;;;;;;17.79;28.21;101080.69;4992191;28;20050;-71
2022/09/23 13:51:54;;;;;;;2.03;1.00;;;;;;;17.80;28.84;101076.91;4992979;28;20050;-71
2022/09/23 13:54:29;;;;;;;7.68;1.27;;;;;;;17.64;29.28;101066.38;4992854;28;20054;-71
2022/09/23 13:56:57;;;;;;;2.42;1.08;;;;;;;16.95;30.08;101067.88;4992562;28;20402;-70
2022/09/23 13:59:26;;;;;;;1.73;1.20;;;;;;;16.54;30.63;101065.81;4992770;28;20054;-70
2022/09/23 14:02:14;;;;;;;1.52;1.27;;;;;;;17.28;30.00;101067.34;4992230;28;22035;-70
2022/09/23 14:04:41;;;;;;;7.65;5.28;;;;;;;17.16;29.82;101060.75;4990674;28;20057;-70
2022/09/23 14:07:11;;;;;;;4.70;3.00;;;;;;;17.99;29.14;101049.03;4992104;28;20058;-70
2022/09/23 14:09:43;;;;;;;1.92;1.45;;;;;;;18.38;28.64;101054.91;4991787;28;20372;-70
2022/09/23 14:12:10;;;;;;;2.85;1.25;;;;;;;17.88;29.09;101057.75;4975123;28;20066;-70
2022/09/23 14:14:39;;;;;;;4.68;1.20;;;;;;;16.92;30.43;101052.03;4971719;28;20050;-69
2022/09/23 14:17:07;;;;;;;2.13;1.60;;;;;;;17.44;30.22;101055.38;4972620;28;20424;-70
2022/09/23 14:19:35;;;;;;;7.07;1.25;;;;;;;17.74;29.35;101051.41;4972240;28;20047;-69
2022/09/23 14:22:02;;;;;;;3.38;1.45;;;;;;;17.48;30.30;101043.97;4973642;28;20047;-70
2022/09/23 14:24:28;;;;;;;4.47;1.30;;;;;;;17.95;29.01;101046.94;4972833;28;20596;-70
2022/09/23 14:26:59;;;;;;;3.58;1.13;;;;;;;17.48;28.95;101046.66;4972085;28;20057;-70
2022/09/23 14:29:31;;;;;;;2.85;1.15;;;;;;;18.00;28.35;101039.03;4972376;28;20050;-70
2022/09/23 14:31:59;;;;;;;;;;;;;;;18.21;28.27;101043.53;4973855;28;20053;-70
2022/09/23 14:34:44;;;;;;;5.13;1.92;;;;;;;17.87;29.15;101036.25;4972611;28;20004;-73
2022/09/23 14:40:11;;;;;;;4.77;2.50;;;;;;;17.81;29.45;101032.47;4972760;28;20054;-71
2022/09/23 14:42:41;;;;;;;3.08;1.85;;;;;;;17.92;28.88;101037.31;4970795;28;20051;-70
2022/09/23 14:45:12;;;;;;;3.30;0.80;;;;;;;17.62;29.46;101034.03;4971621;28;20050;-70
2022/09/23 14:47:42;;;;;;;;;;;;;;;17.81;29.34;101027.03;4972031;28;20050;-70
2022/09/23 14:53:45;;;;;;;6.20;1.73;;;;;;;17.67;29.80;101019.84;4971853;28;20043;-70
2022/09/23 14:56:13;;;;;;;3.22;1.20;;;;;;;18.03;29.52;101027.75;4971396;28;20047;-71
2022/09/23 14:58:54;;;;;;;3.17;1.25;;;;;;;18.17;29.53;101017.81;4971498;28;20446;-70
2022/09/23 15:01:29;;;;;;;1.75;0.85;;;;;;;18.12;29.91;101018.41;4972369;28;20051;-70
2022/09/23 15:03:59;;;;;;;3.35;0.90;;;;;;;18.08;29.64;101019.84;4971722;28;20050;-70
2022/09/23 15:06:26;;;;;;;6.07;1.08;;;;;;;18.24;29.83;101019.53;4972122;28;20418;-70
2022/09/23 15:08:54;;;;;;;2.00;1.23;;;;;;;17.87;30.08;101015.38;4971442;28;20050;-70
2022/09/23 15:11:21;;;;;;;4.55;1.13;;;;;;;18.03;30.53;101015.03;4982378;28;20429;-70
2022/09/23 15:13:51;;;;;;;4.75;2.67;;;;;;;17.72;30.75;101011.97;4992147;28;20405;-70